Flight Track Log - Related Links

Times and Time Zones

All times are in EDT time to prevent confusion due to time zone crossing. See the RPA3253 flight status page for this flight to view local times or setup timezone preferences in your user account.

Time Position Orientation Groundspeed Altitude Reporting Facility
EDT Latitude Longitude Course Direction KTS MPH feet Rate Location/Type
Sun 10:44:52 PM 35.1911 -80.9508 236° Southwest 158 182 1,600  Level Atlanta Center
Sun 10:45:22 PM 35.1725 -80.9517 182° South 148 170 2,400 1,516 Climbing Atlanta Center
Sun 10:46:23 PM 35.1164 -80.9639 190° South 231 266 3,900 1,864 Climbing Atlanta Center
Sun 10:47:00 PM 34.9973 -81.3860 246° West  Level Estimated
Sun 10:47:05 PM 35.0903 -81.0056 233° Southwest 274 315 5,600  Level Atlanta Center
Sun 10:48:00 PM 34.9430 -81.4949 249° West  Level Estimated
Sun 10:48:05 PM 35.0925 -81.0967 272° West 285 328 8,800  Level Atlanta Center
Sun 10:49:00 PM 34.9321 -81.6216 264° West  Level FlightAware Approximate
Sun 10:49:05 PM 35.1175 -81.1872 289° West 277 319 10,700  Level Atlanta Center
Sun 10:50:00 PM 34.8771 -81.7299 236° Southwest  Level Estimated
Sun 10:50:05 PM 35.0969 -81.2869 256° West 290 334 12,800  Level Atlanta Center
Sun 10:51:05 PM 35.0575 -81.3922 245° Southwest 298 343 15,000 2,000 Climbing Atlanta Center
Sun 10:52:05 PM 35.0244 -81.5000 249° West 330 380 16,800 1,800 Climbing Atlanta Center
Sun 10:54:05 PM 34.9578 -81.7275 250° West 357 411 20,400 1,733 Climbing Atlanta Center
Sun 10:55:05 PM 34.9139 -81.8375 244° Southwest 357 411 22,000 1,350 Climbing Atlanta Center
Sun 10:56:05 PM 34.8633 -81.9275 236° Southwest 362 417 23,100 1,300 Climbing Atlanta Center
Sun 10:57:05 PM 34.8006 -82.0353 235° Southwest 362 417 24,600 1,300 Climbing Atlanta Center
Sun 10:58:05 PM 34.7439 -82.1403 237° Southwest 374 430 25,700 1,250 Climbing Atlanta Center
Sun 10:59:05 PM 34.6806 -82.2478 234° Southwest 384 442 27,100 1,150 Climbing Atlanta Center
Sun 11:00:05 PM 34.6217 -82.3525 236° Southwest 384 442 28,000 900 Climbing Atlanta Center
Sun 11:01:05 PM 34.5644 -82.4522 235° Southwest 389 448 28,900 1,050 Climbing Atlanta Center
Sun 11:02:05 PM 34.5033 -82.5642 237° Southwest 394 453 30,100 1,200 Climbing Atlanta Center
Sun 11:03:05 PM 34.4356 -82.6661 231° Southwest 400 460 31,300 1,050 Climbing Atlanta Center
Sun 11:04:05 PM 34.3764 -82.7753 237° Southwest 395 455 32,200 950 Climbing Atlanta Center
Sun 11:05:05 PM 34.3128 -82.8844 235° Southwest 395 455 33,200 900 Climbing Atlanta Center
Sun 11:06:05 PM 34.2469 -82.9983 235° Southwest 395 455 34,000 400 Climbing Atlanta Center
Sun 11:07:05 PM 34.1831 -83.1047 234° Southwest 395 455 34,000  Level Atlanta Center
Sun 11:08:05 PM 34.1192 -83.2133 235° Southwest 395 455 34,000  Level Atlanta Center
Sun 11:09:05 PM 34.0614 -83.3242 238° Southwest 395 455 34,000  Level Atlanta Center
Sun 11:10:05 PM 34.0142 -83.4422 244° Southwest 395 455 34,000  Level Atlanta Center
Sun 11:11:05 PM 33.9603 -83.5631 242° Southwest 406 467 34,000  Level Atlanta Center
Sun 11:12:05 PM 33.8961 -83.6733 235° Southwest 411 473 34,000  Level Atlanta Center
Sun 11:13:05 PM 33.8294 -83.7836 234° Southwest 411 473 34,000  Level Atlanta Center
Sun 11:14:05 PM 33.7692 -83.8789 233° Southwest 406 467 34,000  Level Atlanta Center
Sun 11:15:05 PM 33.7044 -83.9864 234° Southwest 406 467 34,000  Level Atlanta Center
Sun 11:16:05 PM 33.6378 -84.0911 233° Southwest 406 467 34,000  Level Atlanta Center
Sun 11:17:05 PM 33.5728 -84.2008 235° Southwest 406 467 34,000  Level Atlanta Center
Sun 11:18:05 PM 33.4997 -84.3178 233° Southwest 406 467 34,000  Level Atlanta Center
Sun 11:19:05 PM 33.4325 -84.4247 233° Southwest 406 467 34,000  Level Atlanta Center
Sun 11:20:05 PM 33.3675 -84.5314 234° Southwest 406 467 34,000  Level Atlanta Center
Sun 11:21:05 PM 33.3003 -84.6403 234° Southwest 406 467 34,000  Level Atlanta Center
Sun 11:22:05 PM 33.2369 -84.7442 234° Southwest 401 461 34,000  Level Atlanta Center
Sun 11:23:05 PM 33.1717 -84.8503 234° Southwest 406 467 34,000  Level Atlanta Center
Sun 11:24:05 PM 33.1061 -84.9539 233° Southwest 406 467 34,000  Level Atlanta Center
Sun 11:25:05 PM 33.0386 -85.0622 233° Southwest 406 467 34,000  Level Atlanta Center
Sun 11:26:05 PM 32.9814 -85.1556 234° Southwest 406 467 34,000  Level Atlanta Center
Sun 11:27:05 PM 32.9136 -85.2489 229° Southwest 392 451 34,000  Level Atlanta Center
Sun 11:28:05 PM 32.8458 -85.3542 233° Southwest 392 451 34,000  Level Atlanta Center
Sun 11:29:05 PM 32.7800 -85.4569 233° Southwest 392 451 34,000  Level Atlanta Center
Sun 11:30:05 PM 32.7161 -85.5622 234° Southwest 392 451 34,000  Level Atlanta Center
Sun 11:31:05 PM 32.6481 -85.6644 232° Southwest 392 451 34,000  Level Atlanta Center
Sun 11:32:05 PM 32.5839 -85.7694 234° Southwest 397 457 34,000  Level Atlanta Center
Sun 11:33:05 PM 32.5178 -85.8692 232° Southwest 397 457 34,000  Level Atlanta Center
Sun 11:34:05 PM 32.4431 -85.9783 231° Southwest 411 473 34,000  Level Atlanta Center
Sun 11:35:05 PM 32.3767 -86.0803 232° Southwest 411 473 34,000  Level Atlanta Center
Sun 11:36:05 PM 32.3125 -86.1844 234° Southwest 406 467 34,000  Level Atlanta Center
Sun 11:37:05 PM 32.2417 -86.2858 230° Southwest 406 467 34,000  Level Atlanta Center
Sun 11:38:05 PM 32.1750 -86.3919 233° Southwest 406 467 34,000  Level Atlanta Center
Sun 11:39:05 PM 32.1083 -86.4908 232° Southwest 401 461 34,000  Level Atlanta Center
Sun 11:40:05 PM 32.0375 -86.5894 230° Southwest 401 461 34,000  Level Atlanta Center
Sun 11:41:05 PM 31.9667 -86.6853 229° Southwest 396 456 34,000  Level Atlanta Center
Sun 11:42:05 PM 31.8872 -86.7906 228° Southwest 403 464 34,000  Level Atlanta Center
Sun 11:43:05 PM 31.8139 -86.8861 228° Southwest 397 457 34,000  Level Atlanta Center
Sun 11:44:05 PM 31.7450 -86.9839 230° Southwest 397 457 34,000  Level Atlanta Center
Sun 11:45:05 PM 31.6886 -87.0700 232° Southwest 391 450 34,000  Level Atlanta Center
Sun 11:46:27 PM 31.5836 -87.2031 227° Southwest 388 447 34,000  Level Houston Center
Sun 11:47:27 PM 31.5136 -87.2981 229° Southwest 386 444 34,000  Level Houston Center
Sun 11:48:28 PM 31.4444 -87.3928 229° Southwest 384 442 34,000  Level Houston Center
Sun 11:49:28 PM 31.3750 -87.4869 229° Southwest 381 438 34,000  Level Houston Center
Sun 11:50:29 PM 31.3056 -87.5808 229° Southwest 383 441 34,000  Level Houston Center
Sun 11:51:29 PM 31.2369 -87.6744 229° Southwest 381 438 34,000  Level Houston Center
Sun 11:52:30 PM 31.1750 -87.7675 232° Southwest 379 436 34,000  Level Houston Center
Sun 11:53:30 PM 31.1242 -87.8739 241° Southwest 377 434 34,000  Level Houston Center
Sun 11:54:30 PM 31.0700 -87.9789 239° Southwest 379 436 34,000  Level Houston Center
Sun 11:55:31 PM 31.0169 -88.0858 240° Southwest 382 440 34,000  Level Houston Center
Sun 11:56:31 PM 30.9617 -88.1906 238° Southwest 381 438 34,000  Level Houston Center
Sun 11:57:32 PM 30.9067 -88.2975 239° Southwest 386 444 34,000  Level Houston Center
Sun 11:58:32 PM 30.8542 -88.4019 240° Southwest 377 434 34,000 -545 Level Houston Center
Sun 11:59:33 PM 30.8011 -88.5075 240° Southwest 377 434 32,900 -1,488 Descending Houston Center
Mon 12:00:33 AM 30.7464 -88.6122 239° Southwest 378 435 31,000 -2,050 Descending Houston Center
Mon 12:01:33 AM 30.6831 -88.7347 239° Southwest 389 448 28,800 -2,083 Descending Houston Center
Mon 12:02:34 AM 30.6258 -88.8450 239° Southwest 396 456 26,800 -1,983 Descending Houston Center
Mon 12:03:34 AM 30.5669 -88.9592 239° Southwest 389 448 24,800 -1,934 Descending Houston Center
Mon 12:04:35 AM 30.5158 -89.0611 240° Southwest 371 427 22,900 -1,835 Descending Houston Center
Mon 12:05:35 AM 30.4619 -89.1631 238° Southwest 369 425 21,100 -1,760 Descending Houston Center
Mon 12:05:50 AM 30.4514 -89.1856 241° Southwest 365 420 20,700 -1,800 Descending Houston Center
Mon 12:06:35 AM 30.4089 -89.2653 238° Southwest 370 426 19,300 -1,808 Descending Houston Center
Mon 12:07:03 AM 30.3831 -89.3144 239° Southwest 365 420 18,500 -1,770 Descending Houston Center
Mon 12:07:36 AM 30.3572 -89.3636 239° Southwest 360 414 17,500 -1,800 Descending Houston Center
Mon 12:08:03 AM 30.3344 -89.4131 242° Southwest 356 410 16,700 -1,800 Descending Houston Center
Mon 12:08:36 AM 30.3083 -89.4619 238° Southwest 353 406 15,700 -2,164 Descending Houston Center
Mon 12:09:04 AM 30.2858 -89.5094 241° Southwest 347 399 14,500 -2,459 Descending Houston Center
Mon 12:09:37 AM 30.2592 -89.5581 238° Southwest 347 399 13,200 -2,222 Descending Houston Center
Mon 12:09:58 AM 30.2408 -89.5958 241° Southwest 340 391 12,500 -1,800 Descending Houston Center
Mon 12:10:37 AM 30.2125 -89.6486 238° Southwest 330 380 11,400 -1,180 Descending Houston Center
Mon 12:10:59 AM 30.1978 -89.6819 243° Southwest 310 357 11,300 -1,300 Descending Houston Center
Mon 12:11:37 AM 30.1733 -89.7297 239° Southwest 290 334 10,100 -1,855 Descending Houston Center
Mon 12:11:54 AM 30.1625 -89.7533 242° Southwest 275 316 9,600 -1,672 Descending Houston Center
Mon 12:12:38 AM 30.1331 -89.8081 238° Southwest 282 325 8,400 -1,400 Descending Houston Center
Mon 12:12:54 AM 30.1214 -89.8297 238° Southwest 274 315 8,200 -1,000 Descending Houston Center
Mon 12:13:38 AM 30.0922 -89.8831 238° Southwest 276 318 7,400 -1,082 Descending Houston Center
Mon 12:13:55 AM 30.0800 -89.9036 236° Southwest 275 316 7,100 -1,377 Descending Houston Center
Mon 12:14:39 AM 30.0525 -89.9589 240° Southwest 275 316 6,000 -1,600 Descending Houston Center
Mon 12:14:55 AM 30.0406 -89.9800 237° Southwest 273 314 5,500 -1,800 Descending Houston Center
Mon 12:15:39 AM 30.0131 -90.0336 239° Southwest 274 315 4,200 -1,574 Descending Houston Center
Mon 12:15:56 AM 30.0011 -90.0536 235° Southwest 274 315 3,900 -1,400 Descending Houston Center
Mon 12:16:39 AM 29.9717 -90.1067 237° Southwest 273 314 2,800 -1,279 Descending Houston Center
Mon 12:16:57 AM 29.9553 -90.1203 216° Southwest 265 305 2,600 -492 Descending Houston Center
Mon 12:17:40 AM 29.9200 -90.1617 225° Southwest 263 303 2,300 -333 Descending Houston Center
Mon 12:17:51 AM 29.9108 -90.1703 219° Southwest 228 262 2,300 -200 Level Houston Center
Mon 12:18:40 AM 29.8775 -90.2114 227° Southwest 238 274 2,100 -197 Descending Houston Center
Mon 12:18:52 AM 29.8728 -90.2219 243° Southwest 201 231 2,100 -98 Level Houston Center
Mon 12:19:41 AM 29.8861 -90.2592 292° West 199 229 2,000 -179 Descending Houston Center
Mon 12:19:59 AM 29.8950 -90.2644 333° Northwest 144 166 1,900 -800 Descending Houston Center
Mon 12:20:41 AM 29.9222 -90.2733 344° North 162 186 1,200 -900 Descending Houston Center
Mon 12:20:59 AM 29.9306 -90.2700 19° North 130 150 1,000 -500 Descending Houston Center
Mon 12:21:41 AM 29.9594 -90.2631 12° North 143 165 700 -590 Descending Houston Center
Mon 12:22:00 AM 29.9658 -90.2567 41° Northeast 117 135 400 -947 Descending Houston Center

Login

Don't have an account? Register now (free) for customized features, flight alerts, and more!